createdAt,value
2023-05-11T00:01:50.402Z,14.18
2023-05-11T00:04:53.297Z,14.18
2023-05-11T00:07:55.141Z,14.17
2023-05-11T00:10:56.908Z,14.17
2023-05-11T00:13:58.583Z,14.18
2023-05-11T00:17:00.305Z,14.18
2023-05-11T00:20:02.685Z,14.19
2023-05-11T00:23:04.376Z,14.19
2023-05-11T00:26:06.126Z,14.17
2023-05-11T00:29:07.772Z,14.14
2023-05-11T00:32:09.831Z,14.12
2023-05-11T00:35:11.829Z,14.09
2023-05-11T00:38:13.538Z,14.06
2023-05-11T00:41:15.436Z,14.02
2023-05-11T00:44:17.221Z,13.97
2023-05-11T00:47:19.426Z,13.90
2023-05-11T00:50:21.295Z,13.84
2023-05-11T00:53:23.224Z,13.79
2023-05-11T00:56:25.146Z,13.74
2023-05-11T00:59:26.980Z,13.70
2023-05-11T01:02:29.132Z,13.65
2023-05-11T01:05:41.502Z,13.62
2023-05-11T01:08:46.483Z,13.57
2023-05-11T01:11:59.735Z,13.51
2023-05-11T01:15:12.002Z,13.45
2023-05-11T01:18:26.803Z,13.41
2023-05-11T01:21:32.734Z,13.35
2023-05-11T01:25:00.642Z,13.30
2023-05-11T01:28:11.695Z,13.25
2023-05-11T01:31:15.443Z,13.21
2023-05-11T01:34:21.811Z,13.17
2023-05-11T01:37:26.139Z,13.14
2023-05-11T01:40:32.080Z,13.10
2023-05-11T01:43:36.209Z,13.06
2023-05-11T01:46:39.357Z,13.02
2023-05-11T01:49:44.049Z,12.98
2023-05-11T01:52:47.394Z,12.95
2023-05-11T01:55:51.092Z,12.93
2023-05-11T01:58:54.809Z,12.90
2023-05-11T02:01:58.185Z,12.88
2023-05-11T02:05:01.321Z,12.85
2023-05-11T02:08:05.485Z,12.84
2023-05-11T02:11:09.806Z,12.80
2023-05-11T02:14:12.366Z,12.78
2023-05-11T02:17:16.106Z,12.76
2023-05-11T02:20:19.945Z,12.74
2023-05-11T02:23:23.181Z,12.75
2023-05-11T02:26:25.233Z,12.75
2023-05-11T02:29:27.364Z,12.74
2023-05-11T02:32:32.074Z,12.74
2023-05-11T02:35:40.265Z,12.74
2023-05-11T02:38:45.476Z,12.74
2023-05-11T02:41:54.718Z,12.74
2023-05-11T02:45:01.910Z,12.73
2023-05-11T02:48:15.333Z,12.71
2023-05-11T02:51:21.610Z,12.67
2023-05-11T02:54:26.679Z,12.65
2023-05-11T02:57:28.898Z,12.63
2023-05-11T03:00:32.108Z,12.60
2023-05-11T03:03:34.086Z,12.57
2023-05-11T03:06:36.836Z,12.55
2023-05-11T03:09:39.509Z,12.54
2023-05-11T03:12:41.949Z,12.52
2023-05-11T03:15:44.093Z,12.48
2023-05-11T03:18:48.156Z,12.45
2023-05-11T03:21:52.084Z,12.45
2023-05-11T03:24:54.109Z,12.45
2023-05-11T03:27:58.462Z,12.46
2023-05-11T03:31:00.538Z,12.47
2023-05-11T03:34:02.567Z,12.46
2023-05-11T03:37:09.835Z,12.49
2023-05-11T03:40:14.344Z,12.50
2023-05-11T03:43:29.537Z,12.51
2023-05-11T03:46:32.563Z,12.54
2023-05-11T03:49:37.495Z,12.56
2023-05-11T03:52:39.971Z,12.59
2023-05-11T03:55:41.938Z,12.60
2023-05-11T03:58:44.147Z,12.61
2023-05-11T04:01:46.496Z,12.63
2023-05-11T04:04:49.066Z,12.66
2023-05-11T04:07:51.374Z,12.69
2023-05-11T04:10:53.471Z,12.73
2023-05-11T04:13:55.193Z,12.74
2023-05-11T04:16:56.938Z,12.77
2023-05-11T04:19:58.778Z,12.79
2023-05-11T04:23:00.726Z,12.81
2023-05-11T04:26:02.447Z,12.83
2023-05-11T04:29:04.455Z,12.85
2023-05-11T04:32:06.360Z,12.87
2023-05-11T04:35:08.466Z,12.88
2023-05-11T04:38:12.315Z,12.90
2023-05-11T04:41:14.387Z,12.91
2023-05-11T04:44:16.674Z,12.94
2023-05-11T04:47:18.400Z,12.96
2023-05-11T04:50:21.620Z,13.01
2023-05-11T04:53:23.492Z,13.06
2023-05-11T04:56:25.768Z,13.11
2023-05-11T04:59:27.599Z,13.19
2023-05-11T05:02:29.411Z,13.26
2023-05-11T05:05:31.288Z,13.35
2023-05-11T05:08:33.008Z,13.42
2023-05-11T05:11:34.825Z,13.50
2023-05-11T05:14:36.638Z,13.60
2023-05-11T05:17:39.734Z,13.73
2023-05-11T05:20:41.656Z,13.87
2023-05-11T05:23:43.604Z,13.99
2023-05-11T05:26:46.073Z,14.12
2023-05-11T05:29:48.193Z,14.28
2023-05-11T05:32:50.176Z,14.45
2023-05-11T05:35:51.896Z,14.63
2023-05-11T05:38:53.934Z,14.78
2023-05-11T05:41:55.972Z,14.92
2023-05-11T05:44:58.720Z,15.07
2023-05-11T05:48:00.758Z,15.22
2023-05-11T05:51:02.807Z,15.35
2023-05-11T05:54:04.719Z,15.47
2023-05-11T05:57:06.747Z,15.57
2023-05-11T06:00:09.169Z,15.66
2023-05-11T06:03:14.718Z,15.76
2023-05-11T06:06:16.794Z,15.84
2023-05-11T06:09:18.564Z,15.93
2023-05-11T06:12:20.287Z,16.01
2023-05-11T06:15:24.534Z,16.12
2023-05-11T06:18:31.285Z,16.18
2023-05-11T06:21:33.279Z,16.11
2023-05-11T06:24:35.011Z,15.96
2023-05-11T06:27:36.900Z,15.79
2023-05-11T06:30:39.249Z,15.62
2023-05-11T06:33:42.384Z,15.58
2023-05-11T06:36:49.352Z,15.70
2023-05-11T06:39:51.145Z,15.86
2023-05-11T06:42:53.149Z,16.01
2023-05-11T06:45:54.872Z,16.18
2023-05-11T06:48:56.594Z,16.37
2023-05-11T06:51:58.917Z,16.58
2023-05-11T06:55:00.984Z,16.78
2023-05-11T06:58:02.674Z,16.96
2023-05-11T07:01:07.508Z,17.14
2023-05-11T07:04:09.485Z,17.31
2023-05-11T07:07:11.642Z,17.50
2023-05-11T07:10:13.413Z,17.68
2023-05-11T07:13:15.172Z,17.87
2023-05-11T07:16:17.031Z,18.06
2023-05-11T07:19:18.823Z,18.25
2023-05-11T07:22:21.134Z,18.40
2023-05-11T07:25:22.758Z,18.55
2023-05-11T07:28:24.651Z,18.70
2023-05-11T07:31:26.792Z,18.86
2023-05-11T07:34:28.600Z,19.01
2023-05-11T07:37:30.445Z,19.20
2023-05-11T07:40:32.181Z,19.33
2023-05-11T07:43:34.008Z,19.43
2023-05-11T07:46:35.963Z,19.51
2023-05-11T07:49:43.613Z,19.58
2023-05-11T07:52:45.995Z,19.69
2023-05-11T07:55:47.819Z,19.79
2023-05-11T07:58:49.688Z,19.72
2023-05-11T08:01:51.708Z,19.75
2023-05-11T08:04:53.503Z,19.85
2023-05-11T08:07:55.250Z,19.97
2023-05-11T08:10:57.118Z,20.06
2023-05-11T08:13:58.943Z,20.13
2023-05-11T08:17:00.738Z,20.21
2023-05-11T08:20:06.722Z,20.31
2023-05-11T08:23:10.197Z,20.41
2023-05-11T08:26:11.941Z,20.54
2023-05-11T08:29:13.732Z,20.67
2023-05-11T08:32:15.692Z,20.75
2023-05-11T08:35:17.759Z,20.85
2023-05-11T08:38:19.589Z,20.96
2023-05-11T08:41:22.362Z,21.03
2023-05-11T08:44:25.935Z,21.12
2023-05-11T08:47:28.473Z,21.22
2023-05-11T08:50:30.522Z,21.32
2023-05-11T08:53:32.729Z,21.42
2023-05-11T08:56:36.740Z,21.56
2023-05-11T08:59:40.978Z,21.71
2023-05-11T09:02:43.683Z,21.82
2023-05-11T09:05:46.446Z,21.96
2023-05-11T09:08:48.753Z,22.07
2023-05-11T09:11:51.227Z,22.17
2023-05-11T09:14:53.103Z,22.29
2023-05-11T09:17:58.135Z,22.39
2023-05-11T09:21:03.188Z,22.51
2023-05-11T09:24:05.587Z,22.60
2023-05-11T09:27:08.779Z,22.68
2023-05-11T09:30:23.265Z,22.77
2023-05-11T09:33:25.802Z,22.82
2023-05-11T09:36:28.989Z,22.86
2023-05-11T09:39:39.871Z,22.91
2023-05-11T09:42:44.061Z,23.03
2023-05-11T09:45:47.825Z,23.16
2023-05-11T09:48:59.678Z,23.24
2023-05-11T09:52:01.568Z,23.28
2023-05-11T09:55:09.447Z,23.37
2023-05-11T09:58:11.927Z,23.43
2023-05-11T10:01:16.105Z,23.47
2023-05-11T10:04:23.690Z,23.55
2023-05-11T10:07:33.221Z,23.30
2023-05-11T10:10:37.392Z,22.89
2023-05-11T10:13:40.002Z,22.52
2023-05-11T10:16:43.231Z,22.47
2023-05-11T10:19:46.906Z,22.18
2023-05-11T10:22:59.058Z,21.83
2023-05-11T10:26:01.318Z,21.49
2023-05-11T10:29:03.777Z,21.25
2023-05-11T10:32:07.407Z,21.11
2023-05-11T10:35:09.514Z,20.91
2023-05-11T10:38:12.884Z,20.70
2023-05-11T10:41:31.497Z,20.50
2023-05-11T10:45:10.409Z,20.36
2023-05-11T10:48:49.297Z,20.25
2023-05-11T10:52:12.612Z,20.23
2023-05-11T10:55:38.500Z,20.16
2023-05-11T10:59:01.388Z,20.36
2023-05-11T11:02:03.551Z,20.86
2023-05-11T11:05:09.593Z,21.32
2023-05-11T11:08:11.864Z,21.72
2023-05-11T11:11:32.002Z,22.08
2023-05-11T11:14:58.103Z,22.48
2023-05-11T11:18:23.077Z,22.79
2023-05-11T11:21:42.032Z,22.75
2023-05-11T11:24:45.152Z,22.53
2023-05-11T11:27:54.469Z,22.35
2023-05-11T11:31:27.472Z,22.55
2023-05-11T11:34:29.393Z,22.76
2023-05-11T11:38:04.070Z,22.96
2023-05-11T11:41:08.571Z,23.20
2023-05-11T11:44:22.430Z,23.34
2023-05-11T11:47:26.369Z,23.48
2023-05-11T11:50:28.317Z,23.62
2023-05-11T11:53:36.456Z,23.77
2023-05-11T11:56:40.487Z,23.87
2023-05-11T11:59:46.712Z,23.98
2023-05-11T12:02:49.336Z,24.03
2023-05-11T12:05:59.001Z,24.08
2023-05-11T12:09:00.934Z,24.15
2023-05-11T12:12:03.361Z,24.20
2023-05-11T12:15:06.696Z,24.24
2023-05-11T12:18:20.512Z,24.26
2023-05-11T12:21:27.124Z,24.31
2023-05-11T12:24:29.391Z,24.38
2023-05-11T12:27:31.485Z,24.42
2023-05-11T12:30:33.997Z,24.45
2023-05-11T12:33:45.245Z,24.50
2023-05-11T12:36:49.030Z,24.52
2023-05-11T12:39:55.423Z,24.44
2023-05-11T12:42:58.723Z,24.39
2023-05-11T12:46:00.764Z,24.42
2023-05-11T12:49:02.648Z,24.52
2023-05-11T12:52:07.348Z,24.54
2023-05-11T12:55:11.261Z,24.51
2023-05-11T12:58:15.514Z,24.54
2023-05-11T13:01:23.830Z,24.54
2023-05-11T13:04:29.854Z,24.52
2023-05-11T13:07:31.697Z,24.52
2023-05-11T13:10:33.688Z,24.40
2023-05-11T13:13:35.443Z,24.15
2023-05-11T13:16:37.183Z,23.89
2023-05-11T13:19:39.239Z,23.79
2023-05-11T13:22:41.358Z,23.72
2023-05-11T13:25:47.628Z,23.70
2023-05-11T13:28:58.379Z,23.60
2023-05-11T13:32:08.202Z,23.48
2023-05-11T13:35:10.046Z,23.38
2023-05-11T13:38:12.618Z,23.40
2023-05-11T13:41:14.434Z,23.45
2023-05-11T13:44:16.200Z,23.54
2023-05-11T13:47:17.990Z,23.55
2023-05-11T13:50:20.029Z,23.60
2023-05-11T13:53:21.696Z,23.60
2023-05-11T13:56:23.499Z,23.59
2023-05-11T13:59:25.502Z,23.59
2023-05-11T14:02:27.442Z,23.42
2023-05-11T14:05:29.565Z,23.11
2023-05-11T14:08:31.327Z,22.79
2023-05-11T14:11:33.241Z,22.48
2023-05-11T14:14:35.155Z,22.34
2023-05-11T14:17:37.766Z,22.38
2023-05-11T14:20:42.865Z,22.48
2023-05-11T14:23:57.618Z,22.54
2023-05-11T14:27:04.420Z,22.65
2023-05-11T14:30:06.763Z,22.73
2023-05-11T14:33:08.492Z,22.70
2023-05-11T14:36:10.389Z,22.53
2023-05-11T14:39:12.085Z,22.37
2023-05-11T14:42:14.459Z,22.31
2023-05-11T14:45:16.321Z,22.27
2023-05-11T14:48:18.773Z,22.22
2023-05-11T14:51:20.520Z,22.18
2023-05-11T14:54:22.212Z,22.13
2023-05-11T14:57:23.994Z,22.09
2023-05-11T15:00:25.951Z,22.03
2023-05-11T15:03:27.796Z,21.98
2023-05-11T15:06:29.740Z,21.87
2023-05-11T15:09:31.385Z,21.77
2023-05-11T15:12:33.177Z,21.68
2023-05-11T15:15:35.542Z,21.61
2023-05-11T15:18:37.270Z,21.52
2023-05-11T15:21:39.005Z,21.45
2023-05-11T15:24:40.748Z,21.38
2023-05-11T15:27:42.448Z,21.32
2023-05-11T15:30:44.368Z,21.23
2023-05-11T15:33:46.093Z,21.16
2023-05-11T15:36:49.163Z,21.08
2023-05-11T15:39:51.058Z,21.02
2023-05-11T15:42:52.756Z,20.96
2023-05-11T15:45:54.760Z,20.92
2023-05-11T15:48:59.055Z,20.88
2023-05-11T15:52:01.711Z,20.84
2023-05-11T15:55:04.579Z,20.81
2023-05-11T15:58:07.712Z,20.76
2023-05-11T16:01:09.463Z,20.70
2023-05-11T16:04:11.378Z,20.63
2023-05-11T16:07:13.226Z,20.58
2023-05-11T16:10:14.870Z,20.54
2023-05-11T16:13:16.680Z,20.49
2023-05-11T16:16:18.471Z,20.44
2023-05-11T16:19:20.216Z,20.41
2023-05-11T16:22:21.970Z,20.38
2023-05-11T16:25:23.678Z,20.35
2023-05-11T16:28:25.410Z,20.31
2023-05-11T16:31:27.129Z,20.27
2023-05-11T16:34:29.046Z,20.21
2023-05-11T16:37:30.726Z,20.18
2023-05-11T16:40:32.391Z,20.13
2023-05-11T16:43:34.260Z,20.07
2023-05-11T16:46:36.072Z,20.02
2023-05-11T16:49:37.823Z,19.99
2023-05-11T16:52:40.807Z,19.95
2023-05-11T16:55:42.709Z,19.91
2023-05-11T16:58:44.546Z,19.89
2023-05-11T17:01:46.384Z,19.87
2023-05-11T17:04:48.289Z,19.84
2023-05-11T17:07:50.099Z,19.80
2023-05-11T17:10:51.912Z,19.78
2023-05-11T17:13:54.684Z,19.73
2023-05-11T17:16:56.347Z,19.69
2023-05-11T17:19:58.189Z,19.64
2023-05-11T17:22:59.940Z,19.59
2023-05-11T17:26:11.872Z,19.55
2023-05-11T17:29:14.453Z,19.51
2023-05-11T17:32:16.970Z,19.48
2023-05-11T17:35:19.022Z,19.45
2023-05-11T17:38:20.991Z,19.42
2023-05-11T17:41:22.698Z,19.39
2023-05-11T17:44:24.525Z,19.36
2023-05-11T17:47:26.354Z,19.33
2023-05-11T17:50:28.136Z,19.29
2023-05-11T17:53:30.070Z,19.26
2023-05-11T17:56:32.171Z,19.22
2023-05-11T17:59:33.782Z,19.18
2023-05-11T18:02:35.588Z,19.14
2023-05-11T18:05:48.415Z,19.10
2023-05-11T18:08:51.345Z,19.07
2023-05-11T18:11:53.002Z,19.04
2023-05-11T18:14:54.832Z,19.01
2023-05-11T18:17:56.894Z,18.98
2023-05-11T18:21:03.272Z,18.94
2023-05-11T18:24:05.579Z,18.89
2023-05-11T18:27:07.346Z,18.84
2023-05-11T18:30:09.505Z,18.79
2023-05-11T18:33:11.625Z,18.74
2023-05-11T18:36:14.437Z,18.68
2023-05-11T18:39:16.210Z,18.63
2023-05-11T18:42:18.483Z,18.55
2023-05-11T18:45:20.218Z,18.45
2023-05-11T18:48:22.023Z,18.37
2023-05-11T18:51:24.672Z,18.28
2023-05-11T18:54:26.436Z,18.21
2023-05-11T18:57:28.779Z,18.15
2023-05-11T19:00:36.241Z,18.08
2023-05-11T19:03:38.063Z,18.02
2023-05-11T19:06:39.824Z,17.96
2023-05-11T19:09:41.599Z,17.91
2023-05-11T19:12:43.358Z,17.86
2023-05-11T19:16:07.209Z,17.82
2023-05-11T19:19:09.148Z,17.78
2023-05-11T19:22:11.898Z,17.75
2023-05-11T19:25:13.858Z,17.72
2023-05-11T19:28:16.850Z,17.69
2023-05-11T19:31:18.553Z,17.64
2023-05-11T19:34:20.366Z,17.61
2023-05-11T19:37:22.266Z,17.55
2023-05-11T19:43:29.221Z,17.46
2023-05-11T19:46:31.156Z,17.43
2023-05-11T19:49:32.915Z,17.42
2023-05-11T19:52:35.968Z,17.38
2023-05-11T19:55:39.104Z,17.37
2023-05-11T19:58:41.134Z,17.35
2023-05-11T20:01:43.045Z,17.31
2023-05-11T20:04:45.912Z,17.25
2023-05-11T20:07:47.590Z,17.21
2023-05-11T20:10:49.317Z,17.17
2023-05-11T20:13:53.187Z,17.12
2023-05-11T20:17:08.889Z,17.07
2023-05-11T20:20:11.381Z,17.04
2023-05-11T20:23:13.862Z,17.01
2023-05-11T20:26:15.783Z,16.99
2023-05-11T20:29:18.420Z,16.98
2023-05-11T20:32:20.257Z,16.96
2023-05-11T20:35:22.417Z,16.95
2023-05-11T20:38:24.207Z,16.92
2023-05-11T20:41:28.348Z,16.88
2023-05-11T20:44:30.076Z,16.87
2023-05-11T20:47:31.832Z,16.85
2023-05-11T20:50:33.599Z,16.82
2023-05-11T20:53:35.315Z,16.79
2023-05-11T20:56:37.031Z,16.77
2023-05-11T21:02:44.397Z,16.71
2023-05-11T21:05:46.308Z,16.70
2023-05-11T21:08:48.839Z,16.68
2023-05-11T21:11:50.548Z,16.66
2023-05-11T21:14:52.900Z,16.66
2023-05-11T21:17:56.054Z,16.63
2023-05-11T21:20:58.548Z,16.61
2023-05-11T21:24:00.620Z,16.59
2023-05-11T21:27:02.889Z,16.57
2023-05-11T21:30:04.973Z,16.55
2023-05-11T21:33:06.690Z,16.52
2023-05-11T21:36:08.615Z,16.49
2023-05-11T21:39:12.425Z,16.47
2023-05-11T21:42:14.625Z,16.42
2023-05-11T21:45:19.111Z,16.40
2023-05-11T21:48:21.506Z,16.38
2023-05-11T21:51:23.242Z,16.36
2023-05-11T21:54:25.003Z,16.32
2023-05-11T21:57:26.664Z,16.30
2023-05-11T22:00:28.422Z,16.28
2023-05-11T22:03:31.031Z,16.28
2023-05-11T22:06:32.772Z,16.24
2023-05-11T22:09:34.479Z,16.23
2023-05-11T22:12:36.292Z,16.20
2023-05-11T22:15:37.984Z,16.17
2023-05-11T22:18:39.925Z,16.14
2023-05-11T22:21:41.671Z,16.14
2023-05-11T22:24:43.560Z,16.09
2023-05-11T22:27:45.274Z,16.06
2023-05-11T22:30:47.031Z,16.03
2023-05-11T22:33:48.717Z,15.99
2023-05-11T22:36:50.380Z,15.98
2023-05-11T22:39:53.574Z,15.96
2023-05-11T22:42:55.317Z,15.93
2023-05-11T22:45:56.969Z,15.92
2023-05-11T22:48:58.743Z,15.90
2023-05-11T22:52:00.686Z,15.87
2023-05-11T22:55:03.390Z,15.83
2023-05-11T22:58:05.094Z,15.80
2023-05-11T23:01:06.881Z,15.78
2023-05-11T23:04:09.032Z,15.75
2023-05-11T23:07:12.086Z,15.71
2023-05-11T23:10:13.985Z,15.69
2023-05-11T23:13:15.676Z,15.66
2023-05-11T23:16:18.589Z,15.63
2023-05-11T23:19:20.522Z,15.57
2023-05-11T23:22:22.199Z,15.55
2023-05-11T23:25:25.277Z,15.51
2023-05-11T23:28:26.968Z,15.49
2023-05-11T23:31:28.864Z,15.46
2023-05-11T23:34:30.569Z,15.44
2023-05-11T23:37:32.479Z,15.41
2023-05-11T23:40:34.206Z,15.38
2023-05-11T23:43:36.626Z,15.36
2023-05-11T23:46:38.386Z,15.34
2023-05-11T23:49:40.383Z,15.32
2023-05-11T23:52:42.202Z,15.32
2023-05-11T23:55:47.360Z,15.28
2023-05-11T23:58:49.856Z,15.23
